sensor_id;sensor_type;location;lat;lon;timestamp;temperature;humidity
11256;HTU21D;5685;52.384;13.420;2022-09-09T00:02:02;22.20;99.90
11256;HTU21D;5685;52.384;13.420;2022-09-09T00:05:16;22.20;99.90
11256;HTU21D;5685;52.384;13.420;2022-09-09T00:08:27;22.10;99.90
11256;HTU21D;5685;52.384;13.420;2022-09-09T00:11:40;22.10;99.90
11256;HTU21D;5685;52.384;13.420;2022-09-09T00:14:49;22.10;99.90
11256;HTU21D;5685;52.384;13.420;2022-09-09T00:18:01;22.10;99.90
11256;HTU21D;5685;52.384;13.420;2022-09-09T00:21:13;22.00;99.90
11256;HTU21D;5685;52.384;13.420;2022-09-09T00:24:24;22.00;99.90
11256;HTU21D;5685;52.384;13.420;2022-09-09T00:27:31;22.00;99.90
11256;HTU21D;5685;52.384;13.420;2022-09-09T00:30:36;22.00;99.90
11256;HTU21D;5685;52.384;13.420;2022-09-09T00:33:40;22.00;99.90
11256;HTU21D;5685;52.384;13.420;2022-09-09T00:36:44;22.00;99.90
11256;HTU21D;5685;52.384;13.420;2022-09-09T00:39:47;22.00;99.90
11256;HTU21D;5685;52.384;13.420;2022-09-09T00:43:02;21.90;99.90
11256;HTU21D;5685;52.384;13.420;2022-09-09T00:46:50;21.90;99.90
11256;HTU21D;5685;52.384;13.420;2022-09-09T00:50:03;21.90;99.90
11256;HTU21D;5685;52.384;13.420;2022-09-09T00:53:19;21.90;99.90
11256;HTU21D;5685;52.384;13.420;2022-09-09T00:56:29;21.90;99.90
11256;HTU21D;5685;52.384;13.420;2022-09-09T00:59:47;21.90;99.90
11256;HTU21D;5685;52.384;13.420;2022-09-09T01:03:06;21.90;99.90
11256;HTU21D;5685;52.384;13.420;2022-09-09T01:06:16;21.80;99.90
11256;HTU21D;5685;52.384;13.420;2022-09-09T01:09:26;21.80;99.90
11256;HTU21D;5685;52.384;13.420;2022-09-09T01:12:39;21.80;99.90
11256;HTU21D;5685;52.384;13.420;2022-09-09T01:15:44;21.80;99.90
11256;HTU21D;5685;52.384;13.420;2022-09-09T01:18:49;21.80;99.90
11256;HTU21D;5685;52.384;13.420;2022-09-09T01:22:01;21.80;99.90
11256;HTU21D;5685;52.384;13.420;2022-09-09T01:25:16;21.80;99.90
11256;HTU21D;5685;52.384;13.420;2022-09-09T01:28:28;21.70;99.90
11256;HTU21D;5685;52.384;13.420;2022-09-09T01:31:36;21.70;99.90
11256;HTU21D;5685;52.384;13.420;2022-09-09T01:34:40;21.70;99.90
11256;HTU21D;5685;52.384;13.420;2022-09-09T01:37:43;21.70;99.90
11256;HTU21D;5685;52.384;13.420;2022-09-09T01:40:45;21.70;99.90
11256;HTU21D;5685;52.384;13.420;2022-09-09T01:43:49;21.60;99.90
11256;HTU21D;5685;52.384;13.420;2022-09-09T01:46:52;21.60;99.90
11256;HTU21D;5685;52.384;13.420;2022-09-09T01:49:54;21.60;99.90
11256;HTU21D;5685;52.384;13.420;2022-09-09T01:52:59;21.60;99.90
11256;HTU21D;5685;52.384;13.420;2022-09-09T01:56:11;21.60;99.90
11256;HTU21D;5685;52.384;13.420;2022-09-09T01:59:41;21.50;99.90
11256;HTU21D;5685;52.384;13.420;2022-09-09T02:02:56;21.50;99.90
11256;HTU21D;5685;52.384;13.420;2022-09-09T02:06:11;21.50;99.90
11256;HTU21D;5685;52.384;13.420;2022-09-09T02:09:19;21.50;99.90
11256;HTU21D;5685;52.384;13.420;2022-09-09T02:12:25;21.50;99.90
11256;HTU21D;5685;52.384;13.420;2022-09-09T02:15:32;21.50;99.90
11256;HTU21D;5685;52.384;13.420;2022-09-09T02:18:40;21.40;99.90
11256;HTU21D;5685;52.384;13.420;2022-09-09T02:21:46;21.40;99.90
11256;HTU21D;5685;52.384;13.420;2022-09-09T02:24:50;21.40;99.90
11256;HTU21D;5685;52.384;13.420;2022-09-09T02:27:55;21.40;99.90
11256;HTU21D;5685;52.384;13.420;2022-09-09T02:31:01;21.40;99.90
11256;HTU21D;5685;52.384;13.420;2022-09-09T02:34:05;21.40;99.90
11256;HTU21D;5685;52.384;13.420;2022-09-09T02:37:11;21.40;99.90
11256;HTU21D;5685;52.384;13.420;2022-09-09T02:40:15;21.30;99.90
11256;HTU21D;5685;52.384;13.420;2022-09-09T02:43:17;21.30;99.90
11256;HTU21D;5685;52.384;13.420;2022-09-09T02:46:32;21.30;99.90
11256;HTU21D;5685;52.384;13.420;2022-09-09T02:49:47;21.40;99.90
11256;HTU21D;5685;52.384;13.420;2022-09-09T02:53:05;21.40;99.90
11256;HTU21D;5685;52.384;13.420;2022-09-09T02:56:13;21.40;99.90
11256;HTU21D;5685;52.384;13.420;2022-09-09T02:59:17;21.40;99.90
11256;HTU21D;5685;52.384;13.420;2022-09-09T03:02:20;21.40;99.90
11256;HTU21D;5685;52.384;13.420;2022-09-09T03:05:23;21.40;99.90
11256;HTU21D;5685;52.384;13.420;2022-09-09T03:08:25;21.50;99.90
11256;HTU21D;5685;52.384;13.420;2022-09-09T03:11:28;21.50;99.90
11256;HTU21D;5685;52.384;13.420;2022-09-09T03:14:31;21.50;99.90
11256;HTU21D;5685;52.384;13.420;2022-09-09T03:17:34;21.50;99.90
11256;HTU21D;5685;52.384;13.420;2022-09-09T03:20:37;21.50;99.90
11256;HTU21D;5685;52.384;13.420;2022-09-09T03:23:39;21.50;99.90
11256;HTU21D;5685;52.384;13.420;2022-09-09T03:26:41;21.50;99.90
11256;HTU21D;5685;52.384;13.420;2022-09-09T03:29:45;21.50;99.90
11256;HTU21D;5685;52.384;13.420;2022-09-09T03:32:48;21.50;99.90
11256;HTU21D;5685;52.384;13.420;2022-09-09T03:35:50;21.50;99.90
11256;HTU21D;5685;52.384;13.420;2022-09-09T03:38:53;21.50;99.90
11256;HTU21D;5685;52.384;13.420;2022-09-09T03:41:56;21.50;99.90
11256;HTU21D;5685;52.384;13.420;2022-09-09T03:44:58;21.50;99.90
11256;HTU21D;5685;52.384;13.420;2022-09-09T03:48:02;21.50;99.90
11256;HTU21D;5685;52.384;13.420;2022-09-09T03:51:05;21.60;99.90
11256;HTU21D;5685;52.384;13.420;2022-09-09T03:54:07;21.60;99.90
11256;HTU21D;5685;52.384;13.420;2022-09-09T03:57:10;21.60;99.90
11256;HTU21D;5685;52.384;13.420;2022-09-09T04:00:14;21.60;99.90
11256;HTU21D;5685;52.384;13.420;2022-09-09T04:03:18;21.60;99.90
11256;HTU21D;5685;52.384;13.420;2022-09-09T04:06:20;21.60;99.90
11256;HTU21D;5685;52.384;13.420;2022-09-09T04:09:23;21.60;99.90
11256;HTU21D;5685;52.384;13.420;2022-09-09T04:12:25;21.60;99.90
11256;HTU21D;5685;52.384;13.420;2022-09-09T04:15:27;21.60;99.90
11256;HTU21D;5685;52.384;13.420;2022-09-09T04:18:31;21.60;99.90
11256;HTU21D;5685;52.384;13.420;2022-09-09T04:21:34;21.60;99.90
11256;HTU21D;5685;52.384;13.420;2022-09-09T04:24:36;21.60;99.90
11256;HTU21D;5685;52.384;13.420;2022-09-09T04:27:39;21.60;99.90
11256;HTU21D;5685;52.384;13.420;2022-09-09T04:30:42;21.60;99.90
11256;HTU21D;5685;52.384;13.420;2022-09-09T04:33:46;21.60;99.90
11256;HTU21D;5685;52.384;13.420;2022-09-09T04:36:48;21.60;99.90
11256;HTU21D;5685;52.384;13.420;2022-09-09T04:39:52;21.60;99.90
11256;HTU21D;5685;52.384;13.420;2022-09-09T04:42:54;21.60;99.90
11256;HTU21D;5685;52.384;13.420;2022-09-09T04:45:56;21.60;99.90
11256;HTU21D;5685;52.384;13.420;2022-09-09T04:49:01;21.60;99.90
11256;HTU21D;5685;52.384;13.420;2022-09-09T04:52:03;21.60;99.90
11256;HTU21D;5685;52.384;13.420;2022-09-09T04:55:07;21.60;99.90
11256;HTU21D;5685;52.384;13.420;2022-09-09T04:58:10;21.60;99.90
11256;HTU21D;5685;52.384;13.420;2022-09-09T05:01:14;21.60;99.90
11256;HTU21D;5685;52.384;13.420;2022-09-09T05:04:19;21.60;99.90
11256;HTU21D;5685;52.384;13.420;2022-09-09T05:07:21;21.60;99.90
11256;HTU21D;5685;52.384;13.420;2022-09-09T05:10:23;21.60;99.90
11256;HTU21D;5685;52.384;13.420;2022-09-09T05:13:26;21.60;99.90
11256;HTU21D;5685;52.384;13.420;2022-09-09T05:16:28;21.60;99.90
11256;HTU21D;5685;52.384;13.420;2022-09-09T05:19:32;21.60;99.90
11256;HTU21D;5685;52.384;13.420;2022-09-09T05:22:34;21.60;99.90
11256;HTU21D;5685;52.384;13.420;2022-09-09T05:25:36;21.60;99.90
11256;HTU21D;5685;52.384;13.420;2022-09-09T05:28:38;21.60;99.90
11256;HTU21D;5685;52.384;13.420;2022-09-09T05:31:40;21.60;99.90
11256;HTU21D;5685;52.384;13.420;2022-09-09T05:34:44;21.60;99.90
11256;HTU21D;5685;52.384;13.420;2022-09-09T05:37:47;21.60;99.90
11256;HTU21D;5685;52.384;13.420;2022-09-09T05:40:49;21.60;99.90
11256;HTU21D;5685;52.384;13.420;2022-09-09T05:43:52;21.60;99.90
11256;HTU21D;5685;52.384;13.420;2022-09-09T05:46:54;21.60;99.90
11256;HTU21D;5685;52.384;13.420;2022-09-09T05:49:59;21.60;99.90
11256;HTU21D;5685;52.384;13.420;2022-09-09T05:53:02;21.60;99.90
11256;HTU21D;5685;52.384;13.420;2022-09-09T05:56:05;21.60;99.90
11256;HTU21D;5685;52.384;13.420;2022-09-09T05:59:10;21.70;99.90
11256;HTU21D;5685;52.384;13.420;2022-09-09T06:02:13;21.70;99.90
11256;HTU21D;5685;52.384;13.420;2022-09-09T06:05:16;21.70;99.90
11256;HTU21D;5685;52.384;13.420;2022-09-09T06:08:18;21.70;99.90
11256;HTU21D;5685;52.384;13.420;2022-09-09T06:11:22;21.70;99.90
11256;HTU21D;5685;52.384;13.420;2022-09-09T06:14:25;21.70;99.90
11256;HTU21D;5685;52.384;13.420;2022-09-09T06:17:27;21.70;99.90
11256;HTU21D;5685;52.384;13.420;2022-09-09T06:20:31;21.70;99.90
11256;HTU21D;5685;52.384;13.420;2022-09-09T06:23:34;21.70;99.90
11256;HTU21D;5685;52.384;13.420;2022-09-09T06:26:37;21.60;99.90
11256;HTU21D;5685;52.384;13.420;2022-09-09T06:29:41;21.70;99.90
11256;HTU21D;5685;52.384;13.420;2022-09-09T06:32:43;21.60;99.90
11256;HTU21D;5685;52.384;13.420;2022-09-09T06:35:52;21.60;99.90
11256;HTU21D;5685;52.384;13.420;2022-09-09T06:38:55;21.70;99.90
11256;HTU21D;5685;52.384;13.420;2022-09-09T06:41:57;21.60;99.90
11256;HTU21D;5685;52.384;13.420;2022-09-09T06:45:00;21.60;99.90
11256;HTU21D;5685;52.384;13.420;2022-09-09T06:48:02;21.60;99.90
11256;HTU21D;5685;52.384;13.420;2022-09-09T06:51:08;21.60;99.90
11256;HTU21D;5685;52.384;13.420;2022-09-09T06:54:12;21.60;99.90
11256;HTU21D;5685;52.384;13.420;2022-09-09T06:57:14;21.60;99.90
11256;HTU21D;5685;52.384;13.420;2022-09-09T07:00:16;21.60;99.90
11256;HTU21D;5685;52.384;13.420;2022-09-09T07:03:19;21.60;99.90
11256;HTU21D;5685;52.384;13.420;2022-09-09T07:06:24;21.60;99.90
11256;HTU21D;5685;52.384;13.420;2022-09-09T07:09:27;21.60;99.90
11256;HTU21D;5685;52.384;13.420;2022-09-09T07:12:30;21.60;99.90
11256;HTU21D;5685;52.384;13.420;2022-09-09T07:15:32;21.60;99.90
11256;HTU21D;5685;52.384;13.420;2022-09-09T07:18:35;21.60;99.90
11256;HTU21D;5685;52.384;13.420;2022-09-09T07:21:38;21.60;99.90
11256;HTU21D;5685;52.384;13.420;2022-09-09T07:24:41;21.60;99.90
11256;HTU21D;5685;52.384;13.420;2022-09-09T07:27:45;21.60;99.90
11256;HTU21D;5685;52.384;13.420;2022-09-09T07:30:53;21.60;99.90
11256;HTU21D;5685;52.384;13.420;2022-09-09T07:33:56;21.60;99.90
11256;HTU21D;5685;52.384;13.420;2022-09-09T07:37:02;21.60;99.90
11256;HTU21D;5685;52.384;13.420;2022-09-09T07:40:05;21.60;99.90
11256;HTU21D;5685;52.384;13.420;2022-09-09T07:43:07;21.60;99.90
11256;HTU21D;5685;52.384;13.420;2022-09-09T07:46:11;21.60;99.90
11256;HTU21D;5685;52.384;13.420;2022-09-09T07:49:15;21.60;99.90
11256;HTU21D;5685;52.384;13.420;2022-09-09T07:52:19;21.60;99.90
11256;HTU21D;5685;52.384;13.420;2022-09-09T07:55:22;21.60;99.90
11256;HTU21D;5685;52.384;13.420;2022-09-09T07:58:26;21.60;99.90
11256;HTU21D;5685;52.384;13.420;2022-09-09T08:01:30;21.60;99.90
11256;HTU21D;5685;52.384;13.420;2022-09-09T08:04:33;21.60;99.90
11256;HTU21D;5685;52.384;13.420;2022-09-09T08:07:37;21.60;99.90
11256;HTU21D;5685;52.384;13.420;2022-09-09T08:10:39;21.60;99.90
11256;HTU21D;5685;52.384;13.420;2022-09-09T08:13:42;21.60;99.90
11256;HTU21D;5685;52.384;13.420;2022-09-09T08:16:47;21.60;99.90
11256;HTU21D;5685;52.384;13.420;2022-09-09T08:19:49;21.60;99.90
11256;HTU21D;5685;52.384;13.420;2022-09-09T08:22:55;21.60;99.90
11256;HTU21D;5685;52.384;13.420;2022-09-09T08:26:03;21.60;99.90
11256;HTU21D;5685;52.384;13.420;2022-09-09T08:29:12;21.60;99.90
11256;HTU21D;5685;52.384;13.420;2022-09-09T08:32:15;21.60;99.90
11256;HTU21D;5685;52.384;13.420;2022-09-09T08:35:19;21.60;99.90
11256;HTU21D;5685;52.384;13.420;2022-09-09T08:38:23;21.60;99.90
11256;HTU21D;5685;52.384;13.420;2022-09-09T08:41:35;21.60;99.90
11256;HTU21D;5685;52.384;13.420;2022-09-09T08:44:56;21.60;99.90
11256;HTU21D;5685;52.384;13.420;2022-09-09T08:48:17;21.60;99.90
11256;HTU21D;5685;52.384;13.420;2022-09-09T08:51:38;21.60;99.90
11256;HTU21D;5685;52.384;13.420;2022-09-09T08:54:43;21.70;99.90
11256;HTU21D;5685;52.384;13.420;2022-09-09T08:57:45;21.60;99.90
11256;HTU21D;5685;52.384;13.420;2022-09-09T09:01:00;21.60;99.90
11256;HTU21D;5685;52.384;13.420;2022-09-09T09:04:19;21.60;99.90
11256;HTU21D;5685;52.384;13.420;2022-09-09T09:07:38;21.60;99.90
11256;HTU21D;5685;52.384;13.420;2022-09-09T09:10:54;21.60;99.90
11256;HTU21D;5685;52.384;13.420;2022-09-09T09:14:03;21.60;99.90
11256;HTU21D;5685;52.384;13.420;2022-09-09T09:17:13;21.70;99.90
11256;HTU21D;5685;52.384;13.420;2022-09-09T09:20:20;21.60;99.90
11256;HTU21D;5685;52.384;13.420;2022-09-09T09:23:26;21.60;99.90
11256;HTU21D;5685;52.384;13.420;2022-09-09T09:26:37;21.70;99.90
11256;HTU21D;5685;52.384;13.420;2022-09-09T09:29:40;21.60;99.90
11256;HTU21D;5685;52.384;13.420;2022-09-09T09:32:52;21.60;99.90
11256;HTU21D;5685;52.384;13.420;2022-09-09T09:35:55;21.70;99.90
11256;HTU21D;5685;52.384;13.420;2022-09-09T09:39:02;21.70;99.90
11256;HTU21D;5685;52.384;13.420;2022-09-09T09:42:10;21.70;99.90
11256;HTU21D;5685;52.384;13.420;2022-09-09T09:45:17;21.70;99.90
11256;HTU21D;5685;52.384;13.420;2022-09-09T09:48:28;21.70;99.90
11256;HTU21D;5685;52.384;13.420;2022-09-09T09:51:32;21.70;99.90
11256;HTU21D;5685;52.384;13.420;2022-09-09T09:54:38;21.70;99.90
11256;HTU21D;5685;52.384;13.420;2022-09-09T09:57:43;21.70;99.90
11256;HTU21D;5685;52.384;13.420;2022-09-09T10:00:49;21.80;99.90
11256;HTU21D;5685;52.384;13.420;2022-09-09T10:03:54;21.80;99.90
11256;HTU21D;5685;52.384;13.420;2022-09-09T10:07:10;21.80;99.90
11256;HTU21D;5685;52.384;13.420;2022-09-09T10:10:18;21.70;99.90
11256;HTU21D;5685;52.384;13.420;2022-09-09T10:13:29;21.80;99.90
11256;HTU21D;5685;52.384;13.420;2022-09-09T10:16:45;21.80;99.90
11256;HTU21D;5685;52.384;13.420;2022-09-09T10:20:10;21.80;99.90
11256;HTU21D;5685;52.384;13.420;2022-09-09T10:23:28;21.80;99.90
11256;HTU21D;5685;52.384;13.420;2022-09-09T10:26:47;21.80;99.90
11256;HTU21D;5685;52.384;13.420;2022-09-09T10:30:03;21.80;99.90
11256;HTU21D;5685;52.384;13.420;2022-09-09T10:33:10;21.80;99.90
11256;HTU21D;5685;52.384;13.420;2022-09-09T10:36:18;21.80;99.90
11256;HTU21D;5685;52.384;13.420;2022-09-09T10:39:33;21.80;99.90
11256;HTU21D;5685;52.384;13.420;2022-09-09T10:42:37;21.80;99.90
11256;HTU21D;5685;52.384;13.420;2022-09-09T10:45:50;21.80;99.90
11256;HTU21D;5685;52.384;13.420;2022-09-09T10:49:05;21.90;99.90
11256;HTU21D;5685;52.384;13.420;2022-09-09T10:52:18;21.90;99.90
11256;HTU21D;5685;52.384;13.420;2022-09-09T10:55:25;21.90;99.90
11256;HTU21D;5685;52.384;13.420;2022-09-09T10:58:37;21.90;99.90
11256;HTU21D;5685;52.384;13.420;2022-09-09T11:01:47;21.90;99.90
11256;HTU21D;5685;52.384;13.420;2022-09-09T11:04:56;21.90;99.90
11256;HTU21D;5685;52.384;13.420;2022-09-09T11:08:04;21.90;99.90
11256;HTU21D;5685;52.384;13.420;2022-09-09T11:11:12;21.90;99.90
11256;HTU21D;5685;52.384;13.420;2022-09-09T11:14:22;21.90;99.90
11256;HTU21D;5685;52.384;13.420;2022-09-09T11:17:35;22.00;99.90
11256;HTU21D;5685;52.384;13.420;2022-09-09T11:20:42;21.90;99.90
11256;HTU21D;5685;52.384;13.420;2022-09-09T11:23:49;22.00;99.90
11256;HTU21D;5685;52.384;13.420;2022-09-09T11:26:58;22.00;99.90
11256;HTU21D;5685;52.384;13.420;2022-09-09T11:30:30;22.00;99.90
11256;HTU21D;5685;52.384;13.420;2022-09-09T11:40:55;22.00;99.90
11256;HTU21D;5685;52.384;13.420;2022-09-09T11:44:00;22.00;99.90
11256;HTU21D;5685;52.384;13.420;2022-09-09T11:47:22;22.00;99.90
11256;HTU21D;5685;52.384;13.420;2022-09-09T11:50:36;22.00;99.90
11256;HTU21D;5685;52.384;13.420;2022-09-09T11:53:51;22.00;99.90
11256;HTU21D;5685;52.384;13.420;2022-09-09T11:56:54;22.10;99.90
11256;HTU21D;5685;52.384;13.420;2022-09-09T11:59:57;22.10;99.90
11256;HTU21D;5685;52.384;13.420;2022-09-09T12:02:59;22.10;99.90
11256;HTU21D;5685;52.384;13.420;2022-09-09T12:06:13;22.10;99.90
11256;HTU21D;5685;52.384;13.420;2022-09-09T12:09:22;22.10;99.90
11256;HTU21D;5685;52.384;13.420;2022-09-09T12:12:31;22.10;99.90
11256;HTU21D;5685;52.384;13.420;2022-09-09T12:15:35;22.10;99.90
11256;HTU21D;5685;52.384;13.420;2022-09-09T12:18:49;22.10;99.90
11256;HTU21D;5685;52.384;13.420;2022-09-09T12:21:58;22.10;99.90
11256;HTU21D;5685;52.384;13.420;2022-09-09T12:25:14;22.10;99.90
11256;HTU21D;5685;52.384;13.420;2022-09-09T12:28:24;22.20;99.90
11256;HTU21D;5685;52.384;13.420;2022-09-09T12:31:34;22.20;99.90
11256;HTU21D;5685;52.384;13.420;2022-09-09T12:34:41;22.20;99.90
11256;HTU21D;5685;52.384;13.420;2022-09-09T12:37:48;22.20;99.90
11256;HTU21D;5685;52.384;13.420;2022-09-09T12:40:55;22.20;99.90
11256;HTU21D;5685;52.384;13.420;2022-09-09T12:44:04;22.20;99.90
11256;HTU21D;5685;52.384;13.420;2022-09-09T12:47:11;22.20;99.90
11256;HTU21D;5685;52.384;13.420;2022-09-09T12:50:20;22.20;99.90
11256;HTU21D;5685;52.384;13.420;2022-09-09T12:53:26;22.20;99.90
11256;HTU21D;5685;52.384;13.420;2022-09-09T12:56:32;22.20;99.90
11256;HTU21D;5685;52.384;13.420;2022-09-09T12:59:37;22.30;99.90
11256;HTU21D;5685;52.384;13.420;2022-09-09T13:02:50;22.30;99.90
11256;HTU21D;5685;52.384;13.420;2022-09-09T13:05:54;22.30;99.90
11256;HTU21D;5685;52.384;13.420;2022-09-09T13:09:02;22.30;99.90
11256;HTU21D;5685;52.384;13.420;2022-09-09T13:12:12;22.30;99.90
11256;HTU21D;5685;52.384;13.420;2022-09-09T13:15:20;22.30;99.90
11256;HTU21D;5685;52.384;13.420;2022-09-09T13:18:25;22.30;99.90
11256;HTU21D;5685;52.384;13.420;2022-09-09T13:21:33;22.30;99.90
11256;HTU21D;5685;52.384;13.420;2022-09-09T13:24:39;22.30;99.90
11256;HTU21D;5685;52.384;13.420;2022-09-09T13:27:52;22.30;99.90
11256;HTU21D;5685;52.384;13.420;2022-09-09T13:31:04;22.40;99.90
11256;HTU21D;5685;52.384;13.420;2022-09-09T13:34:11;22.40;99.90
11256;HTU21D;5685;52.384;13.420;2022-09-09T13:37:23;22.30;99.90
11256;HTU21D;5685;52.384;13.420;2022-09-09T13:40:29;22.40;99.90
11256;HTU21D;5685;52.384;13.420;2022-09-09T13:43:34;22.40;99.90
11256;HTU21D;5685;52.384;13.420;2022-09-09T13:46:40;22.40;99.90
11256;HTU21D;5685;52.384;13.420;2022-09-09T13:49:42;22.40;99.90
11256;HTU21D;5685;52.384;13.420;2022-09-09T13:52:46;22.40;99.90
11256;HTU21D;5685;52.384;13.420;2022-09-09T13:55:51;22.40;99.90
11256;HTU21D;5685;52.384;13.420;2022-09-09T13:58:54;22.40;99.90
11256;HTU21D;5685;52.384;13.420;2022-09-09T14:01:57;22.40;99.90
11256;HTU21D;5685;52.384;13.420;2022-09-09T14:04:59;22.40;99.90
11256;HTU21D;5685;52.384;13.420;2022-09-09T14:08:03;22.40;99.90
11256;HTU21D;5685;52.384;13.420;2022-09-09T14:11:11;22.40;99.90
11256;HTU21D;5685;52.384;13.420;2022-09-09T14:14:14;22.40;99.90
11256;HTU21D;5685;52.384;13.420;2022-09-09T14:17:16;22.40;99.90
11256;HTU21D;5685;52.384;13.420;2022-09-09T14:20:19;22.40;99.90
11256;HTU21D;5685;52.384;13.420;2022-09-09T14:23:21;22.50;99.90
11256;HTU21D;5685;52.384;13.420;2022-09-09T14:26:26;22.50;99.90
11256;HTU21D;5685;52.384;13.420;2022-09-09T14:29:29;22.50;99.90
11256;HTU21D;5685;52.384;13.420;2022-09-09T14:32:31;22.50;99.90
11256;HTU21D;5685;52.384;13.420;2022-09-09T14:35:34;22.50;99.90
11256;HTU21D;5685;52.384;13.420;2022-09-09T14:38:37;22.50;99.90
11256;HTU21D;5685;52.384;13.420;2022-09-09T14:41:41;22.50;99.90
11256;HTU21D;5685;52.384;13.420;2022-09-09T14:44:44;22.50;99.90
11256;HTU21D;5685;52.384;13.420;2022-09-09T14:47:46;22.50;99.90
11256;HTU21D;5685;52.384;13.420;2022-09-09T14:50:48;22.50;99.90
11256;HTU21D;5685;52.384;13.420;2022-09-09T14:53:52;22.50;99.90
11256;HTU21D;5685;52.384;13.420;2022-09-09T14:56:56;22.50;99.90
11256;HTU21D;5685;52.384;13.420;2022-09-09T14:59:58;22.60;99.90
11256;HTU21D;5685;52.384;13.420;2022-09-09T15:03:00;22.60;99.90
11256;HTU21D;5685;52.384;13.420;2022-09-09T15:06:07;22.60;99.90
11256;HTU21D;5685;52.384;13.420;2022-09-09T15:09:10;22.60;99.90
11256;HTU21D;5685;52.384;13.420;2022-09-09T15:12:14;22.60;99.90
11256;HTU21D;5685;52.384;13.420;2022-09-09T15:15:19;22.70;99.90
11256;HTU21D;5685;52.384;13.420;2022-09-09T15:18:21;22.70;99.90
11256;HTU21D;5685;52.384;13.420;2022-09-09T15:21:25;22.70;99.90
11256;HTU21D;5685;52.384;13.420;2022-09-09T15:24:28;22.60;99.90
11256;HTU21D;5685;52.384;13.420;2022-09-09T15:27:32;22.70;99.90
11256;HTU21D;5685;52.384;13.420;2022-09-09T15:30:34;22.60;99.90
11256;HTU21D;5685;52.384;13.420;2022-09-09T15:33:37;22.70;99.90
11256;HTU21D;5685;52.384;13.420;2022-09-09T15:36:41;22.60;99.90
11256;HTU21D;5685;52.384;13.420;2022-09-09T15:39:44;22.60;99.90
11256;HTU21D;5685;52.384;13.420;2022-09-09T15:42:48;22.70;99.90
11256;HTU21D;5685;52.384;13.420;2022-09-09T15:45:54;22.70;99.90
11256;HTU21D;5685;52.384;13.420;2022-09-09T15:49:04;22.70;99.90
11256;HTU21D;5685;52.384;13.420;2022-09-09T15:52:10;22.70;99.90
11256;HTU21D;5685;52.384;13.420;2022-09-09T15:55:12;22.70;99.90
11256;HTU21D;5685;52.384;13.420;2022-09-09T15:58:16;22.70;99.90
11256;HTU21D;5685;52.384;13.420;2022-09-09T16:01:18;22.70;99.90
11256;HTU21D;5685;52.384;13.420;2022-09-09T16:04:21;22.70;99.90
11256;HTU21D;5685;52.384;13.420;2022-09-09T16:07:25;22.70;99.90
11256;HTU21D;5685;52.384;13.420;2022-09-09T16:10:27;22.70;99.90
11256;HTU21D;5685;52.384;13.420;2022-09-09T16:13:33;22.70;99.90
11256;HTU21D;5685;52.384;13.420;2022-09-09T16:16:35;22.70;99.90
11256;HTU21D;5685;52.384;13.420;2022-09-09T16:19:37;22.70;99.90
11256;HTU21D;5685;52.384;13.420;2022-09-09T16:22:40;22.70;99.90
11256;HTU21D;5685;52.384;13.420;2022-09-09T16:25:42;22.70;99.90
11256;HTU21D;5685;52.384;13.420;2022-09-09T16:28:46;22.70;99.90
11256;HTU21D;5685;52.384;13.420;2022-09-09T16:31:49;22.80;99.90
11256;HTU21D;5685;52.384;13.420;2022-09-09T16:34:52;22.80;99.90
11256;HTU21D;5685;52.384;13.420;2022-09-09T16:37:54;22.80;99.90
11256;HTU21D;5685;52.384;13.420;2022-09-09T16:40:58;22.80;99.90
11256;HTU21D;5685;52.384;13.420;2022-09-09T16:44:04;22.80;99.90
11256;HTU21D;5685;52.384;13.420;2022-09-09T16:47:07;22.80;99.90
11256;HTU21D;5685;52.384;13.420;2022-09-09T16:50:09;22.80;99.90
11256;HTU21D;5685;52.384;13.420;2022-09-09T16:53:11;22.80;99.90
11256;HTU21D;5685;52.384;13.420;2022-09-09T16:56:17;22.80;99.90
11256;HTU21D;5685;52.384;13.420;2022-09-09T16:59:22;22.80;99.90
11256;HTU21D;5685;52.384;13.420;2022-09-09T17:02:24;22.80;99.90
11256;HTU21D;5685;52.384;13.420;2022-09-09T17:05:26;22.80;99.90
11256;HTU21D;5685;52.384;13.420;2022-09-09T17:08:29;22.80;99.90
11256;HTU21D;5685;52.384;13.420;2022-09-09T17:11:32;22.80;99.90
11256;HTU21D;5685;52.384;13.420;2022-09-09T17:14:36;22.80;99.90
11256;HTU21D;5685;52.384;13.420;2022-09-09T17:17:38;22.80;99.90
11256;HTU21D;5685;52.384;13.420;2022-09-09T17:20:44;22.80;99.90
11256;HTU21D;5685;52.384;13.420;2022-09-09T17:23:46;22.80;99.90
11256;HTU21D;5685;52.384;13.420;2022-09-09T17:26:48;22.80;99.90
11256;HTU21D;5685;52.384;13.420;2022-09-09T17:29:52;22.80;99.90
11256;HTU21D;5685;52.384;13.420;2022-09-09T17:32:55;22.80;99.90
11256;HTU21D;5685;52.384;13.420;2022-09-09T17:35:57;22.80;99.90
11256;HTU21D;5685;52.384;13.420;2022-09-09T17:39:01;22.80;99.90
11256;HTU21D;5685;52.384;13.420;2022-09-09T17:42:04;22.90;99.90
11256;HTU21D;5685;52.384;13.420;2022-09-09T17:45:09;22.80;99.90
11256;HTU21D;5685;52.384;13.420;2022-09-09T17:48:12;22.90;99.90
11256;HTU21D;5685;52.384;13.420;2022-09-09T17:51:16;22.80;99.90
11256;HTU21D;5685;52.384;13.420;2022-09-09T17:54:20;22.90;99.90
11256;HTU21D;5685;52.384;13.420;2022-09-09T17:57:23;22.80;99.90
11256;HTU21D;5685;52.384;13.420;2022-09-09T18:00:27;22.90;99.90
11256;HTU21D;5685;52.384;13.420;2022-09-09T18:03:31;22.90;99.90
11256;HTU21D;5685;52.384;13.420;2022-09-09T18:06:36;22.90;99.90
11256;HTU21D;5685;52.384;13.420;2022-09-09T18:09:40;22.90;99.90
11256;HTU21D;5685;52.384;13.420;2022-09-09T18:12:42;22.90;99.90
11256;HTU21D;5685;52.384;13.420;2022-09-09T18:15:46;22.90;99.90
11256;HTU21D;5685;52.384;13.420;2022-09-09T18:18:48;22.90;99.90
11256;HTU21D;5685;52.384;13.420;2022-09-09T18:21:51;22.90;99.90
11256;HTU21D;5685;52.384;13.420;2022-09-09T18:24:53;22.90;99.90
11256;HTU21D;5685;52.384;13.420;2022-09-09T18:27:56;22.90;99.90
11256;HTU21D;5685;52.384;13.420;2022-09-09T18:30:59;22.90;99.90
11256;HTU21D;5685;52.384;13.420;2022-09-09T18:34:04;22.90;99.90
11256;HTU21D;5685;52.384;13.420;2022-09-09T18:37:07;22.90;99.90
11256;HTU21D;5685;52.384;13.420;2022-09-09T18:40:10;22.90;99.90
11256;HTU21D;5685;52.384;13.420;2022-09-09T18:43:12;22.90;99.90
11256;HTU21D;5685;52.384;13.420;2022-09-09T18:46:16;22.90;99.90
11256;HTU21D;5685;52.384;13.420;2022-09-09T18:49:20;22.90;99.90
11256;HTU21D;5685;52.384;13.420;2022-09-09T18:52:23;22.90;99.90
11256;HTU21D;5685;52.384;13.420;2022-09-09T18:55:28;22.90;99.90
11256;HTU21D;5685;52.384;13.420;2022-09-09T18:58:31;22.90;99.90
11256;HTU21D;5685;52.384;13.420;2022-09-09T19:01:36;22.90;99.90
11256;HTU21D;5685;52.384;13.420;2022-09-09T19:04:38;22.90;99.90
11256;HTU21D;5685;52.384;13.420;2022-09-09T19:07:40;22.90;99.90
11256;HTU21D;5685;52.384;13.420;2022-09-09T19:10:42;22.90;99.90
11256;HTU21D;5685;52.384;13.420;2022-09-09T19:13:49;22.90;99.90
11256;HTU21D;5685;52.384;13.420;2022-09-09T19:16:53;22.90;99.90
11256;HTU21D;5685;52.384;13.420;2022-09-09T19:19:56;22.90;99.90
11256;HTU21D;5685;52.384;13.420;2022-09-09T19:22:58;22.90;99.90